Time;durP1;ratioP1;P1;durP2;ratioP2;P2;SDS_P1;SDS_P2;PMS_P1;PMS_P2;Temp;Humidity;BMP_temperature;BMP_pressure;BME280_temperature;BME280_humidity;BME280_pressure;Samples;Min_cycle;Max_cycle;Signal;HPM_P1;HPM_P2
2020/12/29 00:00:56;;;;;;;25.45;17.02;;;;;;;3.42;100.00;98022.09;5008908;28;20026;-81
2020/12/29 00:03:25;;;;;;;23.98;16.20;;;;;;;3.39;100.00;98022.25;5001851;28;20053;-80
2020/12/29 00:06:03;;;;;;;28.50;16.38;;;;;;;3.38;100.00;98023.19;5006224;28;20030;-80
2020/12/29 00:08:39;;;;;;;26.90;17.08;;;;;;;3.37;100.00;98022.34;5004565;28;20049;-80
2020/12/29 00:11:22;;;;;;;24.05;14.80;;;;;;;3.41;100.00;98032.59;5002896;28;20073;-80
2020/12/29 00:13:50;;;;;;;25.05;15.57;;;;;;;3.39;100.00;98030.09;4997208;28;20034;-79
2020/12/29 00:16:21;;;;;;;24.33;15.63;;;;;;;3.38;100.00;98029.25;5007345;28;20022;-80
2020/12/29 00:18:47;;;;;;;24.88;16.13;;;;;;;3.41;100.00;98022.16;5017109;28;20706;-81
2020/12/29 00:21:24;;;;;;;23.38;15.98;;;;;;;3.36;100.00;98031.13;5006833;28;20022;-81
2020/12/29 00:23:49;;;;;;;24.00;16.15;;;;;;;3.36;100.00;98032.88;5020628;28;20062;-80
2020/12/29 00:26:20;;;;;;;23.90;15.05;;;;;;;3.46;100.00;98030.56;5017850;28;20604;-80
2020/12/29 00:28:47;;;;;;;24.85;16.02;;;;;;;3.38;100.00;98046.69;5018667;28;20340;-79
2020/12/29 00:31:20;;;;;;;23.27;15.50;;;;;;;3.37;100.00;98037.19;5013921;28;20492;-79
2020/12/29 00:33:47;;;;;;;20.75;15.02;;;;;;;3.38;100.00;98036.25;5016890;28;20037;-81
2020/12/29 00:36:22;;;;;;;25.08;15.48;;;;;;;3.43;100.00;98036.81;5017523;28;20121;-81
2020/12/29 00:38:48;;;;;;;25.03;16.40;;;;;;;3.38;100.00;98036.25;5015868;28;20045;-80
2020/12/29 00:41:17;;;;;;;22.75;15.77;;;;;;;3.38;100.00;98033.63;5016020;28;20552;-79
2020/12/29 00:43:43;;;;;;;22.92;16.50;;;;;;;3.35;100.00;98029.44;5014202;28;20029;-79
2020/12/29 00:46:14;;;;;;;23.00;16.48;;;;;;;3.38;100.00;98038.84;5028898;28;20018;-80
2020/12/29 00:48:46;;;;;;;21.88;16.05;;;;;;;3.37;100.00;98050.25;5013856;28;20363;-82
2020/12/29 00:51:20;;;;;;;23.73;16.33;;;;;;;3.30;100.00;98041.91;5009859;28;20038;-81
2020/12/29 00:53:46;;;;;;;26.75;16.95;;;;;;;3.33;100.00;98046.97;5013537;28;20509;-79
2020/12/29 00:56:19;;;;;;;22.55;16.23;;;;;;;3.25;100.00;98040.50;5013296;28;20096;-79
2020/12/29 00:59:04;;;;;;;;;;;;;;;;;;;;;
2020/12/29 01:01:30;;;;;;;23.38;14.90;;;;;;;3.29;100.00;98055.91;5006845;28;20016;-78
2020/12/29 01:03:55;;;;;;;20.10;14.65;;;;;;;3.29;100.00;98050.69;5005270;28;20094;-78
2020/12/29 01:06:27;;;;;;;21.30;14.82;;;;;;;3.25;100.00;98050.94;5009187;28;20042;-80
2020/12/29 01:08:53;;;;;;;20.52;15.63;;;;;;;3.26;100.00;98052.63;5002494;28;20029;-78
2020/12/29 01:11:18;;;;;;;23.15;15.70;;;;;;;3.35;100.00;98052.91;5006628;28;20469;-80
2020/12/29 01:13:47;;;;;;;25.50;17.48;;;;;;;3.24;100.00;98051.88;5010965;28;20034;-79
2020/12/29 01:16:15;;;;;;;22.45;16.10;;;;;;;3.24;100.00;98059.72;5012529;28;20140;-79
2020/12/29 01:18:43;;;;;;;27.05;16.42;;;;;;;3.16;100.00;98065.38;5005931;28;20029;-81
2020/12/29 01:21:10;;;;;;;24.23;16.50;;;;;;;3.18;100.00;98063.53;5018505;28;20053;-79
2020/12/29 01:23:36;;;;;;;25.63;16.55;;;;;;;3.16;100.00;98062.75;5024739;28;20037;-78
2020/12/29 01:26:02;;;;;;;26.50;17.60;;;;;;;3.07;100.00;98064.16;5006477;28;20798;-79
2020/12/29 01:28:32;;;;;;;25.05;17.35;;;;;;;3.02;100.00;98058.38;5012433;28;20037;-79
2020/12/29 01:31:00;;;;;;;27.17;17.98;;;;;;;2.98;100.00;98064.69;5026145;28;20457;-78
2020/12/29 01:33:26;;;;;;;26.63;17.90;;;;;;;3.00;100.00;98068.03;5004035;28;20025;-80
2020/12/29 01:35:51;;;;;;;26.15;17.92;;;;;;;3.02;100.00;98073.19;5007601;28;20061;-79
2020/12/29 01:38:16;;;;;;;29.23;19.13;;;;;;;3.03;100.00;98072.25;5013872;28;20036;-79
2020/12/29 01:40:42;;;;;;;29.85;20.23;;;;;;;3.05;100.00;98070.38;5016476;28;20630;-79
2020/12/29 01:43:10;;;;;;;29.00;19.90;;;;;;;2.96;100.00;98065.69;5008241;28;20058;-79
2020/12/29 01:45:36;;;;;;;32.15;19.88;;;;;;;3.05;100.00;98070.38;5017292;28;20105;-81
2020/12/29 01:48:01;;;;;;;30.40;20.48;;;;;;;3.02;100.00;98071.41;5012513;28;20057;-81
2020/12/29 01:50:30;;;;;;;30.17;19.55;;;;;;;3.01;100.00;98085.41;5013649;28;20034;-80
2020/12/29 01:52:58;;;;;;;33.63;20.38;;;;;;;3.02;100.00;98079.25;5034567;28;20209;-80
2020/12/29 01:55:24;;;;;;;27.73;18.85;;;;;;;3.02;100.00;98088.84;5022621;28;20036;-80
2020/12/29 01:57:51;;;;;;;28.70;19.17;;;;;;;2.97;100.00;98090.88;5014373;28;20031;-80
2020/12/29 02:00:16;;;;;;;32.85;20.45;;;;;;;2.95;100.00;98084.88;5011873;28;20021;-80
2020/12/29 02:02:45;;;;;;;30.38;20.58;;;;;;;2.99;100.00;98091.63;5002032;28;20456;-80
2020/12/29 02:05:14;;;;;;;27.55;19.05;;;;;;;3.07;100.00;98099.84;5012473;28;20647;-80
2020/12/29 02:07:42;;;;;;;28.67;19.23;;;;;;;3.06;100.00;98100.75;5030126;28;20060;-80
2020/12/29 02:10:08;;;;;;;26.50;18.65;;;;;;;2.98;100.00;98100.38;5033184;28;20042;-80
2020/12/29 02:12:39;;;;;;;32.40;18.23;;;;;;;2.97;100.00;98114.34;5017138;28;20179;-81
2020/12/29 02:15:07;;;;;;;27.20;18.23;;;;;;;2.94;100.00;98106.69;5016034;28;20041;-80
2020/12/29 02:17:35;;;;;;;24.55;16.92;;;;;;;3.01;100.00;98110.63;5017017;28;20094;-80
2020/12/29 02:20:03;;;;;;;27.15;17.60;;;;;;;2.98;100.00;98119.47;5008222;28;20444;-80
2020/12/29 02:22:29;;;;;;;28.80;18.48;;;;;;;2.93;100.00;98123.28;5013539;28;20034;-80
2020/12/29 02:24:57;;;;;;;25.58;17.85;;;;;;;3.01;100.00;98121.06;5002081;28;20033;-80
2020/12/29 02:27:24;;;;;;;26.45;18.00;;;;;;;3.00;100.00;98132.44;5003279;28;20108;-79
2020/12/29 02:29:50;;;;;;;26.02;17.77;;;;;;;2.99;100.00;98133.34;5005681;28;20065;-78
2020/12/29 02:32:18;;;;;;;25.35;16.80;;;;;;;2.98;100.00;98135.13;5011379;28;20049;-78
2020/12/29 02:34:43;;;;;;;25.05;17.42;;;;;;;3.02;100.00;98138.41;5021612;28;20067;-81
2020/12/29 02:37:09;;;;;;;27.45;17.88;;;;;;;3.01;100.00;98147.16;5003958;28;20053;-79
2020/12/29 02:39:38;;;;;;;25.38;17.63;;;;;;;3.02;100.00;98149.69;5005563;28;20046;-79
2020/12/29 02:42:03;;;;;;;23.33;16.52;;;;;;;2.98;100.00;98142.13;5008760;28;20026;-79
2020/12/29 02:44:29;;;;;;;25.40;16.85;;;;;;;3.07;100.00;98139.00;5007501;28;20453;-79
2020/12/29 02:46:54;;;;;;;23.83;16.25;;;;;;;2.98;100.00;98139.50;5005463;28;20134;-79
2020/12/29 02:49:19;;;;;;;21.55;15.38;;;;;;;2.98;100.00;98145.56;5010808;28;20025;-79
2020/12/29 02:51:45;;;;;;;24.63;16.90;;;;;;;3.01;100.00;98148.03;5008381;28;20032;-79
2020/12/29 02:54:12;;;;;;;27.60;18.10;;;;;;;3.03;100.00;98148.75;5019463;28;20448;-80
2020/12/29 02:56:37;;;;;;;28.85;19.98;;;;;;;2.97;100.00;98143.06;5024236;28;20690;-79
2020/12/29 02:59:02;;;;;;;26.27;17.13;;;;;;;2.93;100.00;98145.00;5007576;28;20033;-78
2020/12/29 03:01:28;;;;;;;28.42;18.90;;;;;;;2.92;100.00;98160.75;4997578;28;20030;-78
2020/12/29 03:03:55;;;;;;;28.45;17.65;;;;;;;2.96;100.00;98149.19;5008148;28;20034;-79
2020/12/29 03:06:20;;;;;;;31.92;18.92;;;;;;;2.95;100.00;98155.31;5004263;28;20080;-79
2020/12/29 03:08:46;;;;;;;26.48;16.63;;;;;;;2.93;100.00;98165.03;5003788;28;20026;-79
2020/12/29 03:11:11;;;;;;;26.25;16.25;;;;;;;2.97;100.00;98164.75;5002860;28;20033;-79
2020/12/29 03:13:36;;;;;;;27.48;16.75;;;;;;;2.88;100.00;98167.88;5008882;28;20045;-79
2020/12/29 03:16:02;;;;;;;23.92;15.40;;;;;;;3.01;100.00;98165.41;5005143;28;20095;-79
2020/12/29 03:18:27;;;;;;;22.75;15.25;;;;;;;2.94;100.00;98167.53;5008477;28;20034;-79
2020/12/29 03:20:52;;;;;;;25.45;16.50;;;;;;;2.87;100.00;98171.44;5002328;28;20029;-79
2020/12/29 03:23:17;;;;;;;24.27;16.67;;;;;;;2.89;100.00;98180.00;5006744;28;20048;-79
2020/12/29 03:25:43;;;;;;;28.58;17.98;;;;;;;2.96;100.00;98185.69;5006766;28;20029;-79
2020/12/29 03:28:08;;;;;;;27.42;17.17;;;;;;;2.88;100.00;98182.69;5009808;28;20042;-79
2020/12/29 03:30:33;;;;;;;25.05;16.83;;;;;;;2.84;100.00;98182.84;5003259;28;20509;-78
2020/12/29 03:32:58;;;;;;;28.63;17.13;;;;;;;2.90;100.00;98192.09;5004933;28;20030;-78
2020/12/29 03:35:24;;;;;;;27.23;16.85;;;;;;;2.86;100.00;98190.59;5002394;28;20480;-79
2020/12/29 03:37:49;;;;;;;27.02;16.40;;;;;;;2.83;100.00;98196.84;5014769;28;20034;-79
2020/12/29 03:40:14;;;;;;;26.40;17.20;;;;;;;2.87;100.00;98199.28;5014558;28;20107;-79
2020/12/29 03:42:39;;;;;;;24.27;15.02;;;;;;;2.91;100.00;98201.63;5008448;28;20026;-79
2020/12/29 03:45:05;;;;;;;27.25;15.18;;;;;;;2.84;100.00;98205.50;5022699;28;20073;-79
2020/12/29 03:47:30;;;;;;;24.00;15.20;;;;;;;2.87;100.00;98207.09;5011928;28;20022;-79
2020/12/29 03:49:55;;;;;;;22.15;14.40;;;;;;;2.91;100.00;98200.78;5016914;28;20065;-78
2020/12/29 03:52:20;;;;;;;21.80;13.25;;;;;;;2.91;100.00;98216.44;5008249;28;20405;-77
2020/12/29 03:54:46;;;;;;;21.02;13.23;;;;;;;2.84;100.00;98215.94;5010598;28;20033;-79
2020/12/29 03:57:11;;;;;;;20.45;13.98;;;;;;;2.81;100.00;98214.34;5008405;28;20528;-79
2020/12/29 03:59:36;;;;;;;20.85;12.82;;;;;;;2.88;100.00;98220.06;5006205;28;20030;-79
2020/12/29 04:02:01;;;;;;;21.95;13.27;;;;;;;2.88;100.00;98220.06;5015328;28;20033;-80
2020/12/29 04:04:27;;;;;;;21.23;13.07;;;;;;;2.84;100.00;98231.59;5009588;28;20030;-80
2020/12/29 04:06:52;;;;;;;23.20;14.63;;;;;;;2.80;100.00;98230.91;5014092;28;20117;-80
2020/12/29 04:09:17;;;;;;;20.83;13.07;;;;;;;2.83;100.00;98230.75;5002672;28;20393;-80
2020/12/29 04:11:42;;;;;;;20.80;13.88;;;;;;;2.87;100.00;98241.88;5010993;28;20025;-80
2020/12/29 04:14:08;;;;;;;20.17;13.25;;;;;;;2.79;100.00;98236.22;4998283;28;20116;-79
2020/12/29 04:16:33;;;;;;;20.58;12.80;;;;;;;2.76;100.00;98237.22;5010779;28;20041;-80
2020/12/29 04:18:58;;;;;;;20.70;12.20;;;;;;;2.77;100.00;98238.91;5008739;28;20520;-80
2020/12/29 04:21:24;;;;;;;23.65;15.65;;;;;;;2.76;100.00;98244.19;5009464;28;20557;-80
2020/12/29 04:23:49;;;;;;;22.63;13.07;;;;;;;2.76;100.00;98242.44;5010065;28;20033;-80
2020/12/29 04:26:14;;;;;;;24.70;14.20;;;;;;;2.79;100.00;98251.84;5005579;28;20053;-80
2020/12/29 04:28:40;;;;;;;21.48;12.50;;;;;;;2.79;100.00;98246.66;5010736;28;20336;-80
2020/12/29 04:31:09;;;;;;;23.30;12.82;;;;;;;2.80;100.00;98243.09;5009659;28;20025;-80
2020/12/29 04:33:34;;;;;;;21.40;13.70;;;;;;;2.84;100.00;98255.06;5009412;28;20026;-80
2020/12/29 04:36:00;;;;;;;24.08;13.60;;;;;;;2.80;100.00;98249.16;5002427;28;20026;-80
2020/12/29 04:38:26;;;;;;;20.00;13.20;;;;;;;2.81;100.00;98256.09;5012294;28;20080;-80
2020/12/29 04:40:53;;;;;;;22.60;13.75;;;;;;;2.81;100.00;98250.00;5007719;28;20026;-81
2020/12/29 04:43:18;;;;;;;23.48;14.73;;;;;;;2.80;100.00;98253.53;5009672;28;20034;-80
2020/12/29 04:45:44;;;;;;;25.92;16.15;;;;;;;2.75;100.00;98250.34;5010646;28;20183;-80
2020/12/29 04:48:11;;;;;;;25.65;14.85;;;;;;;2.67;100.00;98245.53;5012944;28;20041;-80
2020/12/29 04:50:37;;;;;;;26.85;15.27;;;;;;;2.82;100.00;98259.53;5010407;28;20037;-80
2020/12/29 04:53:07;;;;;;;25.13;15.30;;;;;;;2.80;100.00;98264.81;5014066;28;20845;-79
2020/12/29 04:55:35;;;;;;;26.88;16.17;;;;;;;2.81;100.00;98269.13;5019861;28;20057;-79
2020/12/29 04:58:00;;;;;;;27.77;15.38;;;;;;;2.89;100.00;98275.69;5007916;28;20084;-79
2020/12/29 05:00:26;;;;;;;27.60;15.85;;;;;;;2.92;100.00;98281.59;4998864;28;20034;-80
2020/12/29 05:02:52;;;;;;;29.00;16.00;;;;;;;2.88;100.00;98287.88;5007789;28;20149;-80
2020/12/29 05:05:18;;;;;;;29.15;16.55;;;;;;;2.84;100.00;98289.81;5005987;28;20038;-81
2020/12/29 05:07:45;;;;;;;28.42;17.00;;;;;;;2.88;100.00;98300.94;5008307;28;20041;-80
2020/12/29 05:10:11;;;;;;;27.15;16.20;;;;;;;2.87;100.00;98306.25;5015879;28;20034;-81
2020/12/29 05:12:50;;;;;;;30.15;17.55;;;;;;;2.90;100.00;98306.91;5025270;28;20029;-79
2020/12/29 05:15:16;;;;;;;28.90;15.77;;;;;;;2.90;100.00;98312.13;5008684;28;20033;-79
2020/12/29 05:17:41;;;;;;;30.40;17.10;;;;;;;2.84;100.00;98310.69;5004117;28;20030;-79
2020/12/29 05:20:08;;;;;;;28.33;17.42;;;;;;;2.85;100.00;98314.97;5010842;28;20056;-80
2020/12/29 05:22:37;;;;;;;32.75;18.33;;;;;;;2.83;100.00;98316.84;5020527;28;20076;-80
2020/12/29 05:25:03;;;;;;;27.10;17.05;;;;;;;2.81;100.00;98321.31;5002999;28;20026;-80
2020/12/29 05:27:29;;;;;;;25.70;15.95;;;;;;;2.78;100.00;98331.03;4999166;28;20108;-80
2020/12/29 05:29:55;;;;;;;22.05;14.48;;;;;;;2.77;100.00;98326.75;5009083;28;20033;-79
2020/12/29 05:32:23;;;;;;;23.08;14.80;;;;;;;2.71;100.00;98330.53;5004362;28;20022;-80
2020/12/29 05:34:49;;;;;;;23.77;15.52;;;;;;;2.72;100.00;98334.81;5004226;28;20171;-80
2020/12/29 05:37:15;;;;;;;22.27;13.57;;;;;;;2.75;100.00;98339.84;5010336;28;20496;-76
2020/12/29 05:39:41;;;;;;;23.60;14.43;;;;;;;2.74;100.00;98339.94;5010234;28;20088;-80
2020/12/29 05:42:07;;;;;;;22.88;14.35;;;;;;;2.75;100.00;98341.63;5006457;28;20026;-79
2020/12/29 05:44:34;;;;;;;25.65;14.68;;;;;;;2.70;100.00;98347.09;5008719;28;20068;-79
2020/12/29 05:47:02;;;;;;;22.95;14.38;;;;;;;2.78;100.00;98344.09;5009529;28;20022;-78
2020/12/29 05:49:28;;;;;;;25.55;15.80;;;;;;;2.75;100.00;98342.47;4998615;28;20033;-79
2020/12/29 05:51:55;;;;;;;26.50;16.23;;;;;;;2.77;100.00;98351.06;5007306;28;20362;-78
2020/12/29 05:54:23;;;;;;;27.73;16.75;;;;;;;2.75;100.00;98346.84;5001901;28;20088;-79
2020/12/29 05:56:50;;;;;;;29.70;17.85;;;;;;;2.72;100.00;98344.41;5006123;28;20113;-79
2020/12/29 05:59:16;;;;;;;29.17;18.50;;;;;;;2.75;100.00;98354.66;5008322;28;20034;-79
2020/12/29 06:01:47;;;;;;;31.45;18.27;;;;;;;2.76;100.00;98351.13;5001398;28;20033;-77
2020/12/29 06:04:13;;;;;;;27.98;17.02;;;;;;;2.77;100.00;98363.28;5004059;28;20038;-78
2020/12/29 06:06:41;;;;;;;29.73;17.25;;;;;;;2.76;100.00;98362.44;5005187;28;20084;-77
2020/12/29 06:09:12;;;;;;;28.35;17.38;;;;;;;2.75;100.00;98359.88;5002492;28;20026;-78
2020/12/29 06:11:39;;;;;;;30.58;17.63;;;;;;;2.80;100.00;98369.16;5002490;28;20033;-78
2020/12/29 06:14:20;;;;;;;30.23;17.13;;;;;;;2.77;100.00;98366.72;5001364;28;20033;-78
2020/12/29 06:16:45;;;;;;;27.98;16.38;;;;;;;2.79;100.00;98370.09;5000193;28;20110;-77
2020/12/29 06:19:29;;;;;;;31.15;17.85;;;;;;;2.83;100.00;98369.00;5002961;28;20116;-79
2020/12/29 06:22:06;;;;;;;29.17;17.10;;;;;;;2.79;100.00;98377.06;4998955;28;20030;-78
2020/12/29 06:24:48;;;;;;;26.45;16.33;;;;;;;2.77;100.00;98386.75;4996398;28;20044;-78
2020/12/29 06:27:14;;;;;;;26.70;16.02;;;;;;;2.82;100.00;98379.53;5018389;28;20919;-79
2020/12/29 06:29:44;;;;;;;26.50;16.52;;;;;;;2.76;100.00;98387.66;4999107;28;20145;-79
2020/12/29 06:32:13;;;;;;;28.80;16.38;;;;;;;2.77;100.00;98391.97;5000852;28;20084;-79
2020/12/29 06:34:40;;;;;;;26.45;15.32;;;;;;;2.82;100.00;98400.41;5018661;28;20037;-79
2020/12/29 06:37:19;;;;;;;22.75;14.32;;;;;;;2.80;100.00;98404.84;5017046;28;20033;-79
2020/12/29 06:39:48;;;;;;;26.27;14.68;;;;;;;2.72;100.00;98413.06;5018399;28;20033;-78
2020/12/29 06:42:15;;;;;;;23.27;14.20;;;;;;;2.74;100.00;98413.81;5018098;28;20053;-79
2020/12/29 06:44:40;;;;;;;26.05;14.77;;;;;;;2.84;100.00;98411.59;5004792;28;20895;-79
2020/12/29 06:47:12;;;;;;;23.73;13.80;;;;;;;2.74;100.00;98410.38;4999506;28;20099;-79
2020/12/29 06:49:43;;;;;;;19.73;12.93;;;;;;;2.77;100.00;98420.66;5001048;28;20034;-80
2020/12/29 06:52:15;;;;;;;20.83;12.75;;;;;;;2.81;100.00;98423.03;4995358;28;20035;-79
2020/12/29 06:54:51;;;;;;;21.58;13.55;;;;;;;2.84;100.00;98433.31;5007016;28;20096;-79
2020/12/29 06:57:17;;;;;;;22.67;14.15;;;;;;;2.84;100.00;98428.09;5018798;28;20084;-80
2020/12/29 06:59:42;;;;;;;23.20;13.68;;;;;;;2.92;100.00;98442.50;5015146;28;20040;-79
2020/12/29 07:02:17;;;;;;;21.33;13.55;;;;;;;2.90;100.00;98437.34;5004403;28;20026;-79
2020/12/29 07:04:49;;;;;;;22.40;13.80;;;;;;;2.94;100.00;98443.28;5007678;28;20031;-80
2020/12/29 07:07:22;;;;;;;24.50;14.35;;;;;;;2.93;100.00;98452.88;5004883;28;20029;-80
2020/12/29 07:09:48;;;;;;;27.50;15.10;;;;;;;2.93;100.00;98455.47;5001697;28;20053;-79
2020/12/29 07:12:17;;;;;;;24.77;15.23;;;;;;;2.93;100.00;98460.69;4996590;28;20133;-80
2020/12/29 07:14:53;;;;;;;25.25;15.13;;;;;;;2.95;100.00;98466.66;5006497;28;20038;-80
2020/12/29 07:17:23;;;;;;;;;;;;;;;3.00;100.00;98466.44;5001060;28;20097;-79
2020/12/29 07:19:49;;;;;;;23.50;14.85;;;;;;;2.98;100.00;98469.13;5019933;28;20003;-78
2020/12/29 07:22:19;;;;;;;25.67;14.88;;;;;;;2.98;100.00;98481.34;5007945;28;20492;-78
2020/12/29 07:24:45;;;;;;;27.05;16.98;;;;;;;2.95;100.00;98477.09;5005709;28;20030;-78
2020/12/29 07:27:13;;;;;;;25.27;15.48;;;;;;;2.90;100.00;98486.09;5010616;28;20112;-80
2020/12/29 07:29:58;;;;;;;28.13;15.52;;;;;;;2.86;100.00;98488.00;5028622;28;20050;-78
2020/12/29 07:32:24;;;;;;;30.20;16.98;;;;;;;2.85;100.00;98489.75;5009139;28;20034;-78
2020/12/29 07:34:50;;;;;;;28.63;16.08;;;;;;;2.87;100.00;98499.31;5006857;28;20037;-79
2020/12/29 07:37:19;;;;;;;24.60;14.98;;;;;;;2.94;100.00;98498.91;5005945;28;20719;-78
2020/12/29 07:39:45;;;;;;;29.40;15.23;;;;;;;2.94;100.00;98506.72;5023779;28;20030;-79
2020/12/29 07:42:13;;;;;;;30.58;17.25;;;;;;;2.95;100.00;98515.41;5009064;28;20021;-79
2020/12/29 07:44:38;;;;;;;28.05;17.90;;;;;;;2.96;100.00;98517.09;5004812;28;20030;-79
2020/12/29 07:47:03;;;;;;;30.27;17.00;;;;;;;2.96;100.00;98519.69;5009124;28;20071;-81
2020/12/29 07:49:28;;;;;;;29.83;17.98;;;;;;;2.96;100.00;98532.75;5010846;28;20521;-81
2020/12/29 07:51:54;;;;;;;29.35;16.52;;;;;;;2.98;100.00;98525.69;5006321;28;20060;-78
2020/12/29 07:54:19;;;;;;;26.70;16.50;;;;;;;3.00;100.00;98531.66;5005944;28;20114;-80
2020/12/29 07:56:45;;;;;;;32.65;17.20;;;;;;;2.99;100.00;98535.22;5028166;28;20080;-79
2020/12/29 07:59:11;;;;;;;29.20;17.02;;;;;;;2.95;100.00;98536.28;5005925;28;20113;-80
2020/12/29 08:01:55;;;;;;;29.33;16.48;;;;;;;2.97;100.00;98544.88;5006172;28;20127;-78
2020/12/29 08:04:32;;;;;;;30.05;16.35;;;;;;;3.07;100.00;98538.28;5003361;28;20026;-79
2020/12/29 08:06:58;;;;;;;30.13;17.70;;;;;;;3.10;100.00;98545.94;5003711;28;20022;-79
2020/12/29 08:09:25;;;;;;;31.05;17.70;;;;;;;3.07;100.00;98546.13;5007194;28;20045;-79
2020/12/29 08:11:51;;;;;;;33.47;18.83;;;;;;;3.07;100.00;98551.34;5005045;28;20517;-79
2020/12/29 08:14:16;;;;;;;32.30;17.80;;;;;;;3.14;100.00;98552.69;5008622;28;20025;-79
2020/12/29 08:16:41;;;;;;;33.15;18.88;;;;;;;3.09;100.00;98557.31;5006329;28;20029;-78
2020/12/29 08:19:09;;;;;;;33.63;19.58;;;;;;;3.11;100.00;98558.06;5006198;28;20032;-77
2020/12/29 08:21:36;;;;;;;42.03;20.73;;;;;;;3.05;100.00;98574.03;5016110;28;20034;-77
2020/12/29 08:24:01;;;;;;;36.95;20.15;;;;;;;3.11;100.00;98565.91;5017322;28;20096;-77
2020/12/29 08:26:27;;;;;;;36.55;20.15;;;;;;;3.17;100.00;98567.38;5001119;28;20592;-77
2020/12/29 08:28:53;;;;;;;37.58;20.42;;;;;;;3.28;100.00;98571.13;5003004;28;20044;-77
2020/12/29 08:31:19;;;;;;;32.75;20.48;;;;;;;3.24;100.00;98573.97;5000258;28;20038;-77
2020/12/29 08:33:47;;;;;;;32.28;19.75;;;;;;;3.32;100.00;98579.66;5001825;28;20018;-77
2020/12/29 08:36:21;;;;;;;36.92;19.83;;;;;;;3.33;100.00;98573.50;4997040;28;20038;-77
2020/12/29 08:39:02;;;;;;;42.03;20.20;;;;;;;3.40;100.00;98587.09;5000847;28;20034;-77
2020/12/29 08:41:38;;;;;;;35.10;18.90;;;;;;;3.40;100.00;98587.94;5016510;28;20032;-78
2020/12/29 08:44:06;;;;;;;30.50;18.85;;;;;;;3.38;100.00;98601.06;4999918;28;20034;-77
2020/12/29 08:46:34;;;;;;;32.70;19.70;;;;;;;3.41;100.00;98599.22;4998503;28;20038;-77
2020/12/29 08:49:01;;;;;;;30.40;19.20;;;;;;;3.39;100.00;98601.91;5004926;28;20029;-76
2020/12/29 08:51:29;;;;;;;30.80;18.77;;;;;;;3.46;100.00;98616.34;5001246;28;20529;-77
2020/12/29 08:54:07;;;;;;;33.40;18.63;;;;;;;3.48;100.00;98614.50;4999938;28;20034;-76
2020/12/29 08:56:32;;;;;;;27.23;16.70;;;;;;;3.52;100.00;98616.03;5001621;28;20079;-77
2020/12/29 08:59:07;;;;;;;31.60;18.95;;;;;;;3.55;100.00;98618.47;5000268;28;20050;-76
2020/12/29 09:01:35;;;;;;;28.83;18.77;;;;;;;3.61;100.00;98625.16;5002643;28;20026;-76
2020/12/29 09:04:19;;;;;;;30.45;18.00;;;;;;;3.57;100.00;98637.56;5000562;28;20026;-77
2020/12/29 09:06:45;;;;;;;26.10;17.65;;;;;;;3.62;100.00;98637.31;5004306;28;20029;-77
2020/12/29 09:09:10;;;;;;;33.08;18.42;;;;;;;3.67;100.00;98640.53;4999776;28;20034;-75
2020/12/29 09:11:36;;;;;;;23.65;17.17;;;;;;;3.66;100.00;98644.06;4998138;28;20034;-75
2020/12/29 09:14:05;;;;;;;28.08;17.83;;;;;;;3.65;100.00;98637.16;5000130;28;20109;-76
2020/12/29 09:16:30;;;;;;;25.98;17.27;;;;;;;3.64;100.00;98641.53;4995726;28;20033;-77
2020/12/29 09:18:56;;;;;;;29.70;17.30;;;;;;;3.68;100.00;98650.06;4999889;28;20034;-78
2020/12/29 09:21:25;;;;;;;29.25;17.60;;;;;;;3.71;100.00;98659.50;5003603;28;20041;-78
2020/12/29 09:24:01;;;;;;;28.98;17.90;;;;;;;3.73;100.00;98661.13;5002803;28;20029;-76
2020/12/29 09:26:27;;;;;;;;;;;;;;;3.73;100.00;98668.13;5011367;28;20062;-77
2020/12/29 09:28:54;;;;;;;24.70;16.90;;;;;;;3.66;100.00;98678.00;5015391;28;20355;-77
2020/12/29 09:31:24;;;;;;;29.67;17.50;;;;;;;3.75;100.00;98676.72;5013770;28;20026;-74
2020/12/29 09:33:49;;;;;;;25.92;17.45;;;;;;;3.68;100.00;98689.25;4994654;28;20030;-74
2020/12/29 09:36:20;;;;;;;26.10;17.58;;;;;;;3.68;100.00;98689.25;5014164;28;20076;-75
2020/12/29 09:38:49;;;;;;;22.52;16.13;;;;;;;3.70;100.00;98690.00;5002578;28;20029;-75
2020/12/29 09:41:15;;;;;;;25.83;17.38;;;;;;;3.71;100.00;98691.69;4992255;28;20026;-75
2020/12/29 09:43:40;;;;;;;27.00;17.80;;;;;;;3.71;100.00;98696.91;5003380;28;20892;-75
2020/12/29 09:46:05;;;;;;;28.58;18.10;;;;;;;3.71;100.00;98706.53;4997342;28;20041;-75
2020/12/29 09:48:31;;;;;;;27.50;17.52;;;;;;;3.76;100.00;98702.75;5000502;28;20065;-75
2020/12/29 09:50:56;;;;;;;27.83;17.08;;;;;;;3.75;100.00;98706.28;5000712;28;20029;-75
2020/12/29 09:53:22;;;;;;;23.83;16.80;;;;;;;3.75;100.00;98718.50;4997074;28;20060;-75
2020/12/29 09:55:47;;;;;;;29.38;19.27;;;;;;;3.76;100.00;98713.19;4996146;28;20503;-76
2020/12/29 09:58:13;;;;;;;24.23;18.65;;;;;;;3.81;100.00;98719.03;4995505;28;20489;-76
2020/12/29 10:00:38;;;;;;;25.17;17.55;;;;;;;3.80;100.00;98719.97;4999490;28;20649;-76
2020/12/29 10:03:04;;;;;;;23.08;16.42;;;;;;;3.84;100.00;98720.66;4998265;28;20056;-76
2020/12/29 10:05:29;;;;;;;24.98;16.92;;;;;;;3.85;100.00;98728.44;4996248;28;20030;-76
2020/12/29 10:07:54;;;;;;;24.58;16.60;;;;;;;3.85;100.00;98733.66;4999848;28;20032;-75
2020/12/29 10:10:20;;;;;;;22.02;16.77;;;;;;;3.87;100.00;98737.06;4998540;28;20643;-75
2020/12/29 10:12:45;;;;;;;26.88;16.40;;;;;;;3.85;100.00;98741.50;5017516;28;20382;-76
2020/12/29 10:15:10;;;;;;;23.80;16.20;;;;;;;3.90;100.00;98744.72;4998498;28;20030;-75
2020/12/29 10:17:36;;;;;;;24.88;17.25;;;;;;;3.88;100.00;98748.34;4994511;28;20037;-75
2020/12/29 10:20:04;;;;;;;25.52;16.63;;;;;;;3.89;100.00;98750.88;4999849;28;20143;-75
2020/12/29 10:22:29;;;;;;;26.33;16.65;;;;;;;3.88;100.00;98756.19;5016186;28;20030;-75
2020/12/29 10:24:55;;;;;;;26.60;16.40;;;;;;;3.88;100.00;98757.03;5007924;28;20049;-75
2020/12/29 10:27:21;;;;;;;24.65;16.75;;;;;;;3.89;100.00;98763.94;5001050;28;20461;-75
2020/12/29 10:29:46;;;;;;;27.98;16.77;;;;;;;3.82;100.00;98762.56;5016353;28;20065;-75
2020/12/29 10:32:11;;;;;;;24.98;17.17;;;;;;;3.78;100.00;98783.69;4998672;28;20028;-76
2020/12/29 10:34:37;;;;;;;23.67;15.48;;;;;;;3.75;100.00;98778.59;5000795;28;20038;-75
2020/12/29 10:37:02;;;;;;;27.50;16.25;;;;;;;3.83;100.00;98784.31;5021387;28;20072;-75
2020/12/29 10:39:27;;;;;;;27.27;16.52;;;;;;;3.85;100.00;98793.75;5001415;28;20770;-75
2020/12/29 10:41:53;;;;;;;21.80;15.80;;;;;;;3.89;100.00;98786.63;5019243;28;20159;-76
2020/12/29 10:44:18;;;;;;;23.45;14.68;;;;;;;3.93;100.00;98777.72;4996415;28;20037;-75
2020/12/29 10:46:47;;;;;;;21.02;14.30;;;;;;;4.01;100.00;98772.91;5000876;28;20073;-75
2020/12/29 10:49:15;;;;;;;26.30;15.38;;;;;;;4.07;100.00;98777.03;4997157;28;20030;-75
2020/12/29 10:51:41;;;;;;;22.92;15.38;;;;;;;4.00;100.00;98786.06;4999168;28;20192;-75
2020/12/29 10:54:06;;;;;;;25.02;15.00;;;;;;;4.01;100.00;98774.69;5002907;28;20400;-77
2020/12/29 10:56:32;;;;;;;29.85;15.18;;;;;;;4.07;100.00;98777.03;4999656;28;20341;-75
2020/12/29 10:58:58;;;;;;;27.10;14.93;;;;;;;4.13;100.00;98784.56;5001571;28;20058;-75
2020/12/29 11:01:24;;;;;;;28.67;15.30;;;;;;;4.15;100.00;98786.16;5001873;28;20014;-75
2020/12/29 11:03:50;;;;;;;24.88;16.05;;;;;;;4.25;100.00;98789.13;5004108;28;20026;-75
2020/12/29 11:06:20;;;;;;;22.70;15.13;;;;;;;4.31;100.00;98786.19;5000025;28;20105;-76
2020/12/29 11:08:50;;;;;;;25.90;15.73;;;;;;;4.34;100.00;98793.91;4991115;28;20053;-75
2020/12/29 11:11:17;;;;;;;20.10;13.57;;;;;;;4.36;100.00;98796.44;5001269;28;20153;-75
2020/12/29 11:13:43;;;;;;;19.83;13.45;;;;;;;4.35;100.00;98803.44;4998102;28;20492;-75
2020/12/29 11:16:19;;;;;;;23.10;13.75;;;;;;;4.47;100.00;98791.50;5002425;28;20022;-76
2020/12/29 11:18:46;;;;;;;29.15;14.00;;;;;;;4.59;100.00;98798.72;4997912;28;20041;-76
2020/12/29 11:21:14;;;;;;;22.20;12.43;;;;;;;4.52;100.00;98794.75;5010328;28;20118;-76